createdAt,value
2018-12-01T00:00:34.528Z,9.30
2018-12-01T00:03:04.095Z,9.10
2018-12-01T00:05:33.425Z,9.20
2018-12-01T00:08:02.737Z,9.20
2018-12-01T00:10:31.886Z,9.10
2018-12-01T00:13:01.221Z,8.90
2018-12-01T00:15:30.921Z,9.20
2018-12-01T00:18:00.096Z,9.20
2018-12-01T00:20:31.098Z,9.00
2018-12-01T00:23:00.793Z,9.20
2018-12-01T00:25:30.439Z,9.20
2018-12-01T00:27:59.588Z,9.20
2018-12-01T00:30:28.778Z,9.10
2018-12-01T00:32:58.048Z,9.20
2018-12-01T00:35:27.185Z,9.10
2018-12-01T00:37:56.571Z,9.10
2018-12-01T00:40:25.725Z,9.00
2018-12-01T00:42:54.936Z,9.10
2018-12-01T00:45:24.367Z,9.10
2018-12-01T00:47:54.351Z,9.00
2018-12-01T00:50:24.358Z,9.00
2018-12-01T00:52:54.078Z,9.00
2018-12-01T00:55:23.427Z,8.90
2018-12-01T00:57:52.668Z,8.80
2018-12-01T01:00:23.927Z,8.90
2018-12-01T01:02:55.799Z,8.80
2018-12-01T01:05:27.532Z,8.70
2018-12-01T01:07:57.742Z,8.60
2018-12-01T01:10:29.048Z,8.70
2018-12-01T01:12:58.236Z,8.60
2018-12-01T01:15:27.444Z,8.60
2018-12-01T01:17:56.813Z,8.70
2018-12-01T01:20:26.087Z,8.50
2018-12-01T01:22:55.310Z,8.60
2018-12-01T01:25:24.459Z,8.70
2018-12-01T01:27:54.090Z,8.60
2018-12-01T01:30:24.360Z,8.50
2018-12-01T01:33:57.234Z,8.50
2018-12-01T01:36:27.056Z,8.50
2018-12-01T01:38:56.267Z,8.40
2018-12-01T01:41:25.454Z,8.50
2018-12-01T01:43:54.628Z,8.50
2018-12-01T01:46:24.158Z,8.50
2018-12-01T01:48:53.314Z,8.60
2018-12-01T01:51:22.541Z,8.60
2018-12-01T01:53:51.797Z,8.70
2018-12-01T01:56:21.100Z,8.70
2018-12-01T01:58:50.360Z,8.80
2018-12-01T02:01:19.527Z,8.60
2018-12-01T02:03:48.855Z,8.60
2018-12-01T02:06:18.115Z,8.50
2018-12-01T02:08:47.561Z,8.40
2018-12-01T02:11:16.863Z,8.50
2018-12-01T02:13:46.080Z,8.40
2018-12-01T02:16:15.298Z,8.50
2018-12-01T02:18:44.412Z,8.30
2018-12-01T02:21:13.829Z,8.30
2018-12-01T02:23:42.992Z,8.30
2018-12-01T02:26:12.213Z,8.30
2018-12-01T02:28:41.449Z,8.20
2018-12-01T02:31:10.721Z,8.10
2018-12-01T02:33:39.867Z,8.10
2018-12-01T02:36:08.997Z,8.10
2018-12-01T02:38:38.657Z,8.00
2018-12-01T02:41:07.925Z,8.10
2018-12-01T02:43:37.037Z,8.00
2018-12-01T02:46:17.315Z,7.90
2018-12-01T02:48:46.924Z,7.90
2018-12-01T02:51:16.110Z,8.00
2018-12-01T02:53:45.279Z,7.90
2018-12-01T02:56:14.479Z,8.00
2018-12-01T02:58:43.686Z,8.10
2018-12-01T03:01:12.932Z,8.20
2018-12-01T03:03:42.197Z,8.20
2018-12-01T03:06:11.351Z,8.20
2018-12-01T03:08:40.735Z,8.10
2018-12-01T03:11:09.912Z,8.10
2018-12-01T03:13:39.026Z,8.20
2018-12-01T03:16:08.172Z,8.20
2018-12-01T03:18:37.311Z,8.30
2018-12-01T03:21:06.944Z,8.20
2018-12-01T03:23:36.202Z,8.30
2018-12-01T03:26:06.614Z,8.20
2018-12-01T03:28:36.230Z,8.00
2018-12-01T03:31:05.534Z,8.00
2018-12-01T03:33:34.872Z,8.00
2018-12-01T03:36:04.040Z,8.10
2018-12-01T03:38:33.181Z,8.20
2018-12-01T03:41:02.580Z,8.20
2018-12-01T03:43:31.718Z,8.30
2018-12-01T03:46:01.061Z,8.30
2018-12-01T03:48:30.549Z,8.30
2018-12-01T03:50:59.705Z,8.50
2018-12-01T03:53:28.897Z,8.50
2018-12-01T03:55:58.243Z,8.40
2018-12-01T03:58:27.413Z,8.40
2018-12-01T04:00:56.747Z,8.40
2018-12-01T04:03:25.886Z,8.50
2018-12-01T04:05:55.064Z,8.30
2018-12-01T04:08:24.253Z,8.40
2018-12-01T04:10:54.700Z,8.60
2018-12-01T04:13:24.095Z,8.50
2018-12-01T04:15:53.251Z,8.60
2018-12-01T04:18:22.544Z,8.60
2018-12-01T04:20:51.684Z,8.60
2018-12-01T04:23:20.833Z,8.60
2018-12-01T04:25:49.991Z,8.60
2018-12-01T04:28:19.423Z,8.50
2018-12-01T04:30:48.670Z,8.60
2018-12-01T04:33:17.862Z,8.50
2018-12-01T04:35:47.043Z,8.50
2018-12-01T04:38:16.238Z,8.50
2018-12-01T04:40:45.492Z,8.60
2018-12-01T04:43:14.658Z,8.60
2018-12-01T04:45:43.899Z,8.60
2018-12-01T04:48:13.125Z,8.60
2018-12-01T04:50:42.305Z,8.50
2018-12-01T04:53:11.450Z,8.50
2018-12-01T04:55:40.643Z,8.50
2018-12-01T04:58:09.919Z,8.60
2018-12-01T05:00:39.218Z,8.60
2018-12-01T05:03:08.482Z,8.60
2018-12-01T05:05:37.645Z,8.60
2018-12-01T05:08:06.773Z,8.50
2018-12-01T05:10:35.845Z,8.60
2018-12-01T05:13:05.279Z,8.60
2018-12-01T05:15:34.483Z,8.70
2018-12-01T05:18:03.817Z,8.70
2018-12-01T05:20:32.884Z,8.70
2018-12-01T05:23:02.013Z,8.70
2018-12-01T05:25:31.447Z,8.70
2018-12-01T05:28:00.566Z,8.70
2018-12-01T05:30:29.807Z,8.60
2018-12-01T05:32:59.186Z,8.60
2018-12-01T05:35:28.633Z,8.70
2018-12-01T05:37:57.949Z,8.70
2018-12-01T05:40:27.095Z,8.80
2018-12-01T05:42:56.356Z,8.80
2018-12-01T05:45:25.536Z,8.80
2018-12-01T05:47:55.147Z,8.80
2018-12-01T05:50:25.025Z,8.80
2018-12-01T05:52:56.467Z,8.80
2018-12-01T05:55:25.861Z,8.80
2018-12-01T05:57:55.037Z,8.70
2018-12-01T06:00:24.232Z,8.80
2018-12-01T06:02:53.626Z,8.60
2018-12-01T06:05:22.794Z,8.70
2018-12-01T06:07:52.051Z,8.70
2018-12-01T06:10:22.410Z,8.70
2018-12-01T06:12:52.717Z,8.70
2018-12-01T06:15:22.174Z,8.60
2018-12-01T06:17:51.378Z,8.60
2018-12-01T06:20:22.063Z,8.60
2018-12-01T06:22:51.312Z,8.40
2018-12-01T06:25:21.783Z,8.40
2018-12-01T06:27:50.937Z,8.40
2018-12-01T06:30:20.493Z,8.50
2018-12-01T06:32:50.519Z,8.40
2018-12-01T06:35:19.563Z,8.40
2018-12-01T06:37:48.655Z,8.50
2018-12-01T06:40:18.620Z,8.50
2018-12-01T06:42:47.704Z,8.50
2018-12-01T06:45:17.412Z,8.60
2018-12-01T06:47:46.534Z,8.50
2018-12-01T06:50:23.104Z,8.50
2018-12-01T06:52:53.207Z,8.40
2018-12-01T06:55:23.200Z,8.50
2018-12-01T06:57:52.278Z,8.40
2018-12-01T07:00:24.499Z,8.50
2018-12-01T07:02:54.687Z,8.50
2018-12-01T07:05:24.224Z,8.50
2018-12-01T07:07:53.638Z,8.50
2018-12-01T07:10:23.499Z,8.50
2018-12-01T07:12:55.296Z,8.50
2018-12-01T07:15:35.884Z,8.50
2018-12-01T07:18:16.394Z,8.50
2018-12-01T07:20:46.381Z,8.40
2018-12-01T07:23:17.030Z,8.40
2018-12-01T07:25:46.006Z,8.40
2018-12-01T07:28:15.272Z,8.40
2018-12-01T07:30:44.896Z,8.40
2018-12-01T07:33:14.986Z,8.40
2018-12-01T07:35:44.883Z,8.40
2018-12-01T07:38:14.844Z,8.30
2018-12-01T07:40:44.536Z,8.40
2018-12-01T07:43:14.234Z,8.40
2018-12-01T07:45:43.653Z,8.40
2018-12-01T07:48:13.261Z,8.50
2018-12-01T07:50:42.510Z,8.40
2018-12-01T07:53:12.151Z,8.40
2018-12-01T07:55:41.694Z,8.50
2018-12-01T07:58:11.135Z,8.40
2018-12-01T08:00:40.445Z,8.40
2018-12-01T08:03:09.909Z,8.50
2018-12-01T08:05:39.517Z,8.50
2018-12-01T08:08:09.841Z,8.60
2018-12-01T08:10:39.927Z,8.50
2018-12-01T08:13:09.723Z,8.50
2018-12-01T08:15:39.793Z,8.50
2018-12-01T08:18:10.071Z,8.50
2018-12-01T08:20:39.517Z,8.60
2018-12-01T08:23:08.942Z,8.50
2018-12-01T08:25:38.617Z,8.40
2018-12-01T08:28:09.876Z,8.50
2018-12-01T08:30:40.008Z,8.50
2018-12-01T08:33:09.857Z,8.50
2018-12-01T08:35:39.404Z,8.60
2018-12-01T08:38:08.926Z,8.50
2018-12-01T08:40:38.328Z,8.50
2018-12-01T08:43:07.908Z,8.60
2018-12-01T08:45:38.385Z,8.60
2018-12-01T08:48:08.634Z,8.50
2018-12-01T08:50:38.857Z,8.50
2018-12-01T08:53:08.286Z,8.50
2018-12-01T08:55:37.522Z,8.50
2018-12-01T08:58:07.137Z,8.50
2018-12-01T09:00:38.336Z,8.60
2018-12-01T09:03:12.678Z,8.60
2018-12-01T09:05:42.320Z,8.70
2018-12-01T09:08:11.970Z,8.60
2018-12-01T09:10:41.499Z,8.70
2018-12-01T09:13:10.872Z,8.70
2018-12-01T09:15:40.372Z,8.80
2018-12-01T09:18:10.000Z,8.70
2018-12-01T09:20:39.656Z,8.70
2018-12-01T09:23:09.353Z,8.70
2018-12-01T09:25:38.709Z,8.80
2018-12-01T09:28:09.227Z,8.60
2018-12-01T09:30:40.358Z,8.70
2018-12-01T09:33:10.130Z,8.80
2018-12-01T09:35:40.008Z,8.90
2018-12-01T09:38:11.676Z,8.90
2018-12-01T09:40:41.086Z,8.90
2018-12-01T09:43:10.648Z,8.90
2018-12-01T09:45:40.132Z,9.10
2018-12-01T09:48:10.358Z,9.30
2018-12-01T09:50:39.938Z,9.50
2018-12-01T09:53:09.533Z,9.60
2018-12-01T09:55:39.024Z,9.80
2018-12-01T09:58:08.521Z,9.90
2018-12-01T10:00:38.109Z,10.00
2018-12-01T10:03:08.875Z,10.10
2018-12-01T10:05:38.256Z,10.20
2018-12-01T10:08:08.199Z,10.10
2018-12-01T10:10:37.626Z,10.20
2018-12-01T10:13:07.367Z,10.30
2018-12-01T10:15:37.350Z,10.30
2018-12-01T10:18:10.257Z,10.40
2018-12-01T10:20:40.065Z,10.20
2018-12-01T10:23:10.791Z,10.30
2018-12-01T10:25:40.190Z,10.20
2018-12-01T10:28:11.093Z,10.20
2018-12-01T10:30:40.404Z,10.00
2018-12-01T10:33:09.957Z,9.90
2018-12-01T10:35:40.065Z,10.00
2018-12-01T10:38:16.434Z,10.00
2018-12-01T10:40:45.979Z,9.90
2018-12-01T10:43:15.679Z,10.10
2018-12-01T10:45:44.954Z,10.20
2018-12-01T10:48:14.842Z,10.20
2018-12-01T10:50:44.404Z,10.30
2018-12-01T10:53:14.288Z,10.40
2018-12-01T10:55:43.900Z,10.40
2018-12-01T10:58:15.640Z,10.60
2018-12-01T11:00:52.442Z,10.60
2018-12-01T11:03:27.828Z,10.70
2018-12-01T11:05:58.903Z,10.80
2018-12-01T11:08:28.340Z,10.90
2018-12-01T11:10:57.538Z,11.00
2018-12-01T11:13:27.056Z,11.00
2018-12-01T11:15:56.613Z,11.10
2018-12-01T11:18:25.993Z,11.10
2018-12-01T11:20:55.436Z,11.10
2018-12-01T11:23:25.812Z,11.30
2018-12-01T11:25:55.576Z,11.40
2018-12-01T11:28:25.089Z,11.20
2018-12-01T11:30:54.597Z,11.40
2018-12-01T11:33:23.941Z,11.40
2018-12-01T11:35:53.471Z,11.50
2018-12-01T11:38:22.837Z,11.50
2018-12-01T11:40:52.276Z,11.50
2018-12-01T11:43:22.100Z,11.60
2018-12-01T11:45:51.543Z,11.40
2018-12-01T11:48:21.064Z,11.50
2018-12-01T11:50:50.489Z,11.70
2018-12-01T11:53:19.923Z,11.60
2018-12-01T11:55:49.546Z,11.50
2018-12-01T11:58:19.181Z,11.40
2018-12-01T12:00:48.554Z,11.50
2018-12-01T12:03:17.935Z,11.70
2018-12-01T12:05:47.433Z,11.70
2018-12-01T12:08:21.209Z,11.70
2018-12-01T12:10:50.744Z,11.80
2018-12-01T12:13:20.952Z,11.80
2018-12-01T12:15:50.493Z,11.80
2018-12-01T12:18:20.092Z,11.70
2018-12-01T12:20:49.929Z,11.50
2018-12-01T12:23:19.356Z,11.80
2018-12-01T12:25:48.616Z,11.80
2018-12-01T12:28:17.996Z,11.90
2018-12-01T12:30:47.522Z,12.00
2018-12-01T12:33:17.043Z,12.00
2018-12-01T12:35:47.151Z,11.90
2018-12-01T12:38:17.054Z,11.90
2018-12-01T12:40:46.509Z,12.00
2018-12-01T12:43:15.793Z,12.10
2018-12-01T12:45:47.921Z,12.20
2018-12-01T12:48:17.681Z,12.20
2018-12-01T12:50:52.926Z,12.00
2018-12-01T12:53:17.167Z,12.10
2018-12-01T12:55:46.661Z,12.00
2018-12-01T12:58:16.391Z,12.10
2018-12-01T13:00:45.851Z,12.10
2018-12-01T13:03:15.173Z,12.10
2018-12-01T13:05:45.627Z,12.20
2018-12-01T13:08:16.394Z,12.30
2018-12-01T13:10:45.871Z,12.30
2018-12-01T13:13:15.010Z,12.40
2018-12-01T13:15:45.749Z,12.20
2018-12-01T13:18:15.616Z,12.20
2018-12-01T13:20:46.374Z,12.10
2018-12-01T13:23:15.995Z,12.00
2018-12-01T13:25:45.306Z,11.80
2018-12-01T13:28:23.588Z,12.00
2018-12-01T13:30:56.794Z,11.90
2018-12-01T13:33:26.572Z,12.00
2018-12-01T13:35:56.733Z,11.90
2018-12-01T13:38:26.131Z,11.80
2018-12-01T13:40:55.518Z,11.70
2018-12-01T13:43:25.056Z,11.70
2018-12-01T13:45:55.475Z,11.70
2018-12-01T13:48:25.414Z,11.70
2018-12-01T13:50:55.103Z,11.70
2018-12-01T13:53:24.667Z,11.50
2018-12-01T13:55:54.303Z,11.50
2018-12-01T13:58:23.836Z,11.50
2018-12-01T14:00:53.298Z,11.40
2018-12-01T14:03:22.771Z,11.50
2018-12-01T14:05:52.447Z,11.50
2018-12-01T14:08:21.812Z,11.40
2018-12-01T14:10:52.200Z,11.10
2018-12-01T14:13:21.934Z,10.90
2018-12-01T14:15:51.425Z,11.10
2018-12-01T14:18:20.857Z,11.20
2018-12-01T14:20:50.122Z,11.40
2018-12-01T14:23:19.919Z,11.30
2018-12-01T14:25:49.426Z,11.50
2018-12-01T14:28:18.813Z,11.50
2018-12-01T14:30:48.141Z,11.30
2018-12-01T14:33:17.778Z,11.50
2018-12-01T14:35:47.473Z,11.40
2018-12-01T14:38:18.564Z,11.60
2018-12-01T14:40:50.005Z,11.60
2018-12-01T14:43:19.429Z,11.60
2018-12-01T14:45:49.954Z,11.50
2018-12-01T14:48:19.778Z,11.40
2018-12-01T14:50:49.158Z,11.40
2018-12-01T14:53:19.162Z,11.40
2018-12-01T14:55:48.752Z,11.40
2018-12-01T14:58:18.469Z,11.20
2018-12-01T15:00:47.903Z,11.20
2018-12-01T15:03:17.363Z,11.20
2018-12-01T15:05:46.959Z,11.20
2018-12-01T15:08:16.185Z,11.10
2018-12-01T15:10:45.725Z,11.00
2018-12-01T15:13:14.968Z,11.10
2018-12-01T15:15:44.419Z,10.90
2018-12-01T15:18:14.026Z,10.80
2018-12-01T15:20:43.520Z,10.70
2018-12-01T15:23:12.702Z,10.60
2018-12-01T15:25:42.108Z,10.60
2018-12-01T15:28:11.255Z,10.20
2018-12-01T15:30:40.451Z,10.20
2018-12-01T15:33:14.700Z,10.20
2018-12-01T15:35:47.234Z,10.20
2018-12-01T15:38:16.592Z,10.20
2018-12-01T15:40:47.238Z,10.10
2018-12-01T15:43:17.074Z,9.90
2018-12-01T15:45:45.362Z,10.10
2018-12-01T15:48:14.784Z,10.10
2018-12-01T15:50:44.348Z,10.00
2018-12-01T15:53:14.651Z,9.90
2018-12-01T15:55:43.883Z,9.90
2018-12-01T15:58:13.020Z,9.80
2018-12-01T16:00:43.128Z,9.80
2018-12-01T16:03:12.278Z,9.80
2018-12-01T16:05:41.478Z,9.70
2018-12-01T16:08:11.278Z,9.80
2018-12-01T16:10:40.471Z,9.80
2018-12-01T16:13:14.121Z,9.80
2018-12-01T16:15:45.115Z,9.80
2018-12-01T16:18:14.368Z,9.90
2018-12-01T16:20:43.734Z,9.80
2018-12-01T16:23:12.804Z,9.90
2018-12-01T16:25:42.134Z,9.80
2018-12-01T16:28:11.492Z,9.90
2018-12-01T16:30:44.859Z,9.80
2018-12-01T16:33:17.170Z,9.80
2018-12-01T16:35:46.379Z,9.70
2018-12-01T16:38:18.125Z,9.60
2018-12-01T16:40:57.400Z,9.50
2018-12-01T16:43:27.768Z,9.40
2018-12-01T16:46:00.908Z,9.30
2018-12-01T16:48:31.215Z,9.30
2018-12-01T16:51:00.315Z,9.30
2018-12-01T16:53:29.471Z,9.10
2018-12-01T16:55:58.617Z,9.10
2018-12-01T16:58:27.736Z,8.90
2018-12-01T17:00:59.965Z,8.70
2018-12-01T17:03:29.060Z,8.80
2018-12-01T17:06:01.083Z,8.80
2018-12-01T17:08:30.294Z,8.80
2018-12-01T17:10:59.392Z,8.80
2018-12-01T17:13:28.728Z,8.80
2018-12-01T17:15:57.959Z,8.80
2018-12-01T17:18:27.236Z,8.90
2018-12-01T17:20:56.439Z,8.80
2018-12-01T17:23:25.589Z,8.90
2018-12-01T17:25:55.145Z,8.90
2018-12-01T17:28:24.269Z,8.90
2018-12-01T17:30:53.365Z,8.90
2018-12-01T17:33:22.535Z,8.90
2018-12-01T17:35:51.631Z,8.90
2018-12-01T17:38:21.658Z,8.90
2018-12-01T17:41:24.402Z,8.80
2018-12-01T17:43:58.531Z,8.90
2018-12-01T17:46:27.690Z,8.80
2018-12-01T17:48:56.813Z,8.90
2018-12-01T17:51:25.932Z,8.80
2018-12-01T17:53:58.237Z,8.90
2018-12-01T17:56:27.409Z,8.90
2018-12-01T17:58:56.569Z,8.80
2018-12-01T18:01:25.897Z,8.90
2018-12-01T18:03:55.049Z,8.90
2018-12-01T18:06:24.272Z,8.90
2018-12-01T18:08:53.473Z,8.90
2018-12-01T18:11:22.659Z,8.90
2018-12-01T18:13:51.850Z,8.80
2018-12-01T18:16:21.267Z,8.90
2018-12-01T18:18:50.531Z,8.90
2018-12-01T18:21:19.661Z,9.00
2018-12-01T18:23:49.105Z,9.10
2018-12-01T18:26:18.354Z,9.00
2018-12-01T18:28:49.379Z,9.00
2018-12-01T18:31:20.534Z,9.00
2018-12-01T18:33:58.216Z,9.00
2018-12-01T18:36:27.331Z,9.00
2018-12-01T18:38:56.878Z,8.90
2018-12-01T18:41:26.230Z,9.00
2018-12-01T18:43:55.336Z,8.90
2018-12-01T18:46:24.875Z,8.90
2018-12-01T18:48:54.019Z,8.90
2018-12-01T18:51:23.344Z,9.00
2018-12-01T18:53:52.446Z,8.90
2018-12-01T18:56:21.598Z,9.00
2018-12-01T18:58:50.667Z,9.00
2018-12-01T19:01:19.803Z,8.90
2018-12-01T19:03:48.963Z,8.80
2018-12-01T19:06:18.152Z,8.90
2018-12-01T19:08:47.279Z,8.80
2018-12-01T19:11:16.425Z,8.90
2018-12-01T19:13:45.557Z,8.90
2018-12-01T19:16:14.801Z,8.90
2018-12-01T19:18:43.906Z,8.80
2018-12-01T19:21:13.056Z,8.90
2018-12-01T19:23:42.249Z,9.00
2018-12-01T19:26:11.505Z,8.90
2018-12-01T19:28:40.806Z,9.00
2018-12-01T19:31:10.022Z,9.00
2018-12-01T19:33:39.138Z,9.10
2018-12-01T19:36:08.229Z,9.10
2018-12-01T19:38:37.367Z,9.10
2018-12-01T19:41:06.609Z,9.10
2018-12-01T19:43:35.722Z,9.20
2018-12-01T19:46:04.890Z,9.10
2018-12-01T19:48:34.051Z,9.20
2018-12-01T19:51:03.319Z,9.20
2018-12-01T19:53:34.553Z,9.30
2018-12-01T19:56:03.995Z,9.40
2018-12-01T19:58:33.190Z,9.40
2018-12-01T20:01:02.363Z,9.60
2018-12-01T20:03:32.388Z,9.60
2018-12-01T20:06:01.616Z,9.60
2018-12-01T20:08:30.761Z,9.70
2018-12-01T20:11:04.197Z,9.80
2018-12-01T20:13:35.310Z,9.80
2018-12-01T20:16:24.645Z,9.90
2018-12-01T20:18:54.371Z,9.90
2018-12-01T20:21:23.902Z,9.90
2018-12-01T20:23:53.135Z,9.80
2018-12-01T20:26:22.391Z,9.80
2018-12-01T20:28:51.871Z,9.80
2018-12-01T20:31:21.042Z,9.80
2018-12-01T20:33:51.528Z,9.70
2018-12-01T20:36:22.549Z,9.90
2018-12-01T20:39:25.412Z,9.90
2018-12-01T20:41:54.503Z,9.80
2018-12-01T20:44:23.741Z,9.90
2018-12-01T20:46:52.928Z,9.90
2018-12-01T20:49:22.281Z,10.10
2018-12-01T20:51:51.758Z,10.10
2018-12-01T20:54:38.176Z,10.10
2018-12-01T20:57:11.453Z,10.00
2018-12-01T20:59:40.710Z,10.00
2018-12-01T21:02:09.803Z,9.90
2018-12-01T21:04:39.055Z,10.10
2018-12-01T21:07:08.312Z,10.00
2018-12-01T21:09:37.414Z,9.80
2018-12-01T21:12:08.174Z,9.90
2018-12-01T21:14:37.531Z,9.90
2018-12-01T21:17:06.753Z,10.10
2018-12-01T21:19:35.958Z,10.10
2018-12-01T21:22:05.440Z,10.10
2018-12-01T21:24:34.651Z,10.00
2018-12-01T21:27:03.890Z,10.10
2018-12-01T21:29:33.162Z,10.10
2018-12-01T21:32:02.320Z,10.20
2018-12-01T21:34:38.441Z,10.20
2018-12-01T21:37:07.647Z,10.10
2018-12-01T21:39:36.865Z,10.20
2018-12-01T21:42:06.337Z,10.10
2018-12-01T21:44:35.571Z,10.10
2018-12-01T21:47:06.354Z,10.10
2018-12-01T21:49:35.642Z,10.00
2018-12-01T21:52:04.897Z,10.00
2018-12-01T21:54:34.104Z,10.10
2018-12-01T21:57:03.262Z,9.90
2018-12-01T21:59:32.817Z,9.80
2018-12-01T22:02:02.186Z,9.90
2018-12-01T22:04:31.698Z,9.90
2018-12-01T22:07:01.651Z,9.90
2018-12-01T22:09:30.812Z,9.70
2018-12-01T22:12:00.120Z,9.80
2018-12-01T22:14:29.412Z,9.80
2018-12-01T22:16:58.654Z,9.90
2018-12-01T22:19:27.857Z,9.90
2018-12-01T22:21:57.160Z,9.80
2018-12-01T22:24:26.321Z,9.80
2018-12-01T22:26:55.410Z,9.80
2018-12-01T22:29:24.500Z,9.70
2018-12-01T22:31:53.609Z,9.80
2018-12-01T22:34:22.788Z,9.80
2018-12-01T22:36:51.983Z,9.80
2018-12-01T22:39:21.179Z,9.80
2018-12-01T22:41:50.378Z,9.80
2018-12-01T22:44:19.832Z,9.70
2018-12-01T22:46:49.235Z,9.80
2018-12-01T22:49:18.401Z,9.80
2018-12-01T22:51:47.645Z,9.80
2018-12-01T22:54:16.784Z,9.80
2018-12-01T22:56:45.946Z,9.80
2018-12-01T22:59:15.060Z,9.90
2018-12-01T23:01:44.207Z,9.80
2018-12-01T23:04:13.427Z,9.80
2018-12-01T23:06:42.844Z,9.70
2018-12-01T23:09:12.061Z,9.70
2018-12-01T23:11:41.178Z,9.70
2018-12-01T23:14:10.498Z,9.70
2018-12-01T23:16:39.588Z,9.70
2018-12-01T23:19:08.755Z,9.60
2018-12-01T23:21:37.896Z,9.80
2018-12-01T23:24:07.012Z,9.80
2018-12-01T23:26:36.125Z,9.60
2018-12-01T23:29:05.921Z,9.70
2018-12-01T23:31:34.984Z,9.80
2018-12-01T23:34:04.134Z,9.80
2018-12-01T23:36:33.442Z,9.70
2018-12-01T23:39:05.674Z,9.70
2018-12-01T23:41:34.802Z,9.80
2018-12-01T23:44:03.942Z,9.80
2018-12-01T23:46:33.397Z,9.90
2018-12-01T23:49:02.570Z,9.90
2018-12-01T23:51:31.854Z,9.90
2018-12-01T23:54:01.160Z,9.80
2018-12-01T23:56:30.510Z,9.90
2018-12-01T23:58:59.676Z,9.90
